Time;durP1;ratioP1;P1;durP2;ratioP2;P2;SDS_P1;SDS_P2;PMS_P1;PMS_P2;Temp;Humidity;BMP_temperature;BMP_pressure;BME280_temperature;BME280_humidity;BME280_pressure;Samples;Min_cycle;Max_cycle;Signal;HPM_P1;HPM_P2
2023/07/08 00:02:16;;;;;;;;;;;;;;;;;;2203908;67;1648;-18
2023/07/08 00:04:46;;;;;;;;;;;;;;;;;;2207360;59;1747;-18
2023/07/08 00:07:18;;;;;;;;;;;;;;;;;;2205953;59;2369;-18
2023/07/08 00:09:48;;;;;;;;;;;;;;;;;;2206542;59;1785;-18
2023/07/08 00:12:19;;;;;;;;;;;;;;;;;;2203698;59;2237;-19
2023/07/08 00:14:49;;;;;;;;;;;;;;;;;;2208366;67;1924;-18
2023/07/08 00:17:19;;;;;;;;;;;;;;;;;;2208124;67;1495;-18
2023/07/08 00:19:54;;;;;;;;;;;;;;;;;;2205685;59;2218;-18
2023/07/08 00:22:24;;;;;;;;;;;;;;;;;;2208072;67;2762;-20
2023/07/08 00:24:55;;;;;;;;;;;;;;;;;;2204295;59;1746;-20
2023/07/08 00:27:25;;;;;;;;;;;;;;;;;;2207664;59;1934;-20
2023/07/08 00:29:55;;;;;;;;;;;;;;;;;;2207215;59;2640;-21
2023/07/08 00:32:26;;;;;;;;;;;;;;;;;;2208296;59;2012;-20
2023/07/08 00:34:56;;;;;;;;;;;;;;;;;;2207269;67;1944;-21
2023/07/08 00:37:29;;;;;;;;;;;;;;;;;;2206868;59;2429;-20
2023/07/08 00:39:59;;;;;;;;;;;;;;;;;;2207060;59;2990;-20
2023/07/08 00:42:30;;;;;;;;;;;;;;;;;;2203988;59;1957;-21
2023/07/08 00:45:00;;;;;;;;;;;;;;;;;;2207590;67;2966;-20
2023/07/08 00:47:30;;;;;;;;;;;;;;;;;;2207903;63;1561;-20
2023/07/08 00:50:03;;;;;;;;;;;;;;;;;;2207342;67;2184;-20
2023/07/08 00:52:37;;;;;;;;;;;;;;;;;;2203938;59;2536;-20
2023/07/08 00:55:08;;;;;;;;;;;;;;;;;;2206815;59;1941;-21
2023/07/08 00:57:40;;;;;;;;;;;;;;;;;;2207435;59;2421;-20
2023/07/08 01:00:12;;;;;;;;;;;;;;;;;;2206738;67;1937;-21
2023/07/08 01:02:48;;;;;;;;;;;;;;;;;;2200553;59;2624;-20
2023/07/08 01:05:22;;;;;;;;;;;;;;;;;;2206634;59;2081;-20
2023/07/08 01:07:55;;;;;;;;;;;;;;;;;;2207153;67;2491;-20
2023/07/08 01:10:28;;;;;;;;;;;;;;;;;;2203798;67;1919;-20
2023/07/08 01:13:04;;;;;;;;;;;;;;;;;;2206448;59;2132;-21
2023/07/08 01:15:40;;;;;;;;;;;;;;;;;;2209007;59;1941;-20
2023/07/08 01:18:12;;;;;;;;;;;;;;;;;;2206241;59;2028;-21
2023/07/08 01:20:47;;;;;;;;;;;;;;;;;;2203023;59;2606;-20
2023/07/08 01:23:18;;;;;;;;;;;;;;;;;;2203400;67;2128;-20
2023/07/08 01:25:51;;;;;;;;;;;;;;;;;;2207967;59;2052;-20
2023/07/08 01:28:22;;;;;;;;;;;;;;;;;;2208563;59;1709;-21
2023/07/08 01:30:52;;;;;;;;;;;;;;;;;;2203600;59;2071;-20
2023/07/08 01:33:25;;;;;;;;;;;;;;;;;;2208169;67;2221;-20
2023/07/08 01:35:56;;;;;;;;;;;;;;;;;;2208156;67;2254;-20
2023/07/08 01:38:27;;;;;;;;;;;;;;;;;;2207013;59;2426;-20
2023/07/08 01:40:58;;;;;;;;;;;;;;;;;;2203458;59;2302;-22
2023/07/08 01:43:28;;;;;;;;;;;;;;;;;;2207604;59;2566;-21
2023/07/08 01:46:00;;;;;;;;;;;;;;;;;;2207446;59;3499;-21
2023/07/08 01:48:51;;;;;;;;;;;;;;;;;;2207682;59;2676;-20
2023/07/08 01:51:21;;;;;;;;;;;;;;;;;;2206592;59;2353;-20
2023/07/08 01:53:52;;;;;;;;;;;;;;;;;;2207610;59;1840;-21
2023/07/08 01:56:25;;;;;;;;;;;;;;;;;;2205750;59;2390;-20
2023/07/08 01:58:55;;;;;;;;;;;;;;;;;;2206417;59;2768;-20
2023/07/08 02:01:25;;;;;;;;;;;;;;;;;;2206662;67;2448;-21
2023/07/08 02:03:55;;;;;;;;;;;;;;;;;;2206589;59;2177;-20
2023/07/08 02:06:26;;;;;;;;;;;;;;;;;;2206918;67;2890;-20
2023/07/08 02:08:58;;;;;;;;;;;;;;;;;;2203034;53;2276;-24
2023/07/08 02:11:29;;;;;;;;;;;;;;;;;;2200715;59;1775;-24
2023/07/08 02:14:00;;;;;;;;;;;;;;;;;;2200757;59;3404;-24
2023/07/08 02:16:30;;;;;;;;;;;;;;;;;;2197407;59;2388;-24
2023/07/08 02:19:01;;;;;;;;;;;;;;;;;;2203048;67;2053;-24
2023/07/08 02:21:31;;;;;;;;;;;;;;;;;;2205272;59;1907;-24
2023/07/08 02:24:01;;;;;;;;;;;;;;;;;;2204772;67;1848;-24
2023/07/08 02:26:32;;;;;;;;;;;;;;;;;;2204529;59;2163;-24
2023/07/08 02:29:02;;;;;;;;;;;;;;;;;;2200507;60;2096;-24
2023/07/08 02:31:32;;;;;;;;;;;;;;;;;;2205212;59;1865;-24
2023/07/08 02:34:03;;;;;;;;;;;;;;;;;;2203371;59;2299;-24
2023/07/08 02:36:34;;;;;;;;;;;;;;;;;;2204927;67;1986;-24
2023/07/08 02:39:04;;;;;;;;;;;;;;;;;;2203339;67;2635;-24
2023/07/08 02:41:35;;;;;;;;;;;;;;;;;;2204367;59;2479;-24
2023/07/08 02:44:08;;;;;;;;;;;;;;;;;;2204425;67;2202;-24
2023/07/08 02:46:38;;;;;;;;;;;;;;;;;;2204821;59;2858;-24
2023/07/08 02:49:09;;;;;;;;;;;;;;;;;;2203899;67;1891;-24
2023/07/08 02:51:39;;;;;;;;;;;;;;;;;;2205069;59;1950;-24
2023/07/08 02:54:10;;;;;;;;;;;;;;;;;;2203857;59;2476;-24
2023/07/08 02:56:40;;;;;;;;;;;;;;;;;;2205060;59;1937;-24
2023/07/08 02:59:10;;;;;;;;;;;;;;;;;;2204226;67;1870;-24
2023/07/08 03:01:46;;;;;;;;;;;;;;;;;;2205789;62;1786;-24
2023/07/08 03:04:18;;;;;;;;;;;;;;;;;;2203883;59;2059;-24
2023/07/08 03:06:49;;;;;;;;;;;;;;;;;;2204183;67;1828;-24
2023/07/08 03:09:20;;;;;;;;;;;;;;;;;;2204242;59;1756;-24
2023/07/08 03:11:50;;;;;;;;;;;;;;;;;;2205471;59;2431;-24
2023/07/08 03:14:20;;;;;;;;;;;;;;;;;;2203492;59;2369;-24
2023/07/08 03:16:50;;;;;;;;;;;;;;;;;;2203662;67;2442;-24
2023/07/08 03:19:20;;;;;;;;;;;;;;;;;;2202345;60;1999;-24
2023/07/08 03:21:51;;;;;;;;;;;;;;;;;;2205286;67;2233;-24
2023/07/08 03:24:21;;;;;;;;;;;;;;;;;;2202666;67;1970;-24
2023/07/08 03:26:54;;;;;;;;;;;;;;;;;;2204661;59;2335;-24
2023/07/08 03:29:24;;;;;;;;;;;;;;;;;;2204342;67;2255;-24
2023/07/08 03:31:54;;;;;;;;;;;;;;;;;;2203606;59;2282;-25
2023/07/08 03:34:24;;;;;;;;;;;;;;;;;;2203560;59;2030;-24
2023/07/08 03:36:55;;;;;;;;;;;;;;;;;;2205138;67;2020;-24
2023/07/08 03:39:25;;;;;;;;;;;;;;;;;;2205075;67;2422;-24
2023/07/08 03:41:55;;;;;;;;;;;;;;;;;;2204465;59;2748;-24
2023/07/08 03:44:25;;;;;;;;;;;;;;;;;;2205582;67;1965;-24
2023/07/08 03:46:56;;;;;;;;;;;;;;;;;;2205516;59;1864;-24
2023/07/08 03:49:26;;;;;;;;;;;;;;;;;;2204860;67;2693;-24
2023/07/08 03:51:59;;;;;;;;;;;;;;;;;;2205214;59;2615;-24
2023/07/08 03:54:29;;;;;;;;;;;;;;;;;;2204561;59;2226;-24
2023/07/08 03:57:00;;;;;;;;;;;;;;;;;;2203721;59;2001;-24
2023/07/08 03:59:31;;;;;;;;;;;;;;;;;;2205244;67;2297;-24
2023/07/08 04:02:02;;;;;;;;;;;;;;;;;;2201978;67;2374;-24
2023/07/08 04:04:33;;;;;;;;;;;;;;;;;;2205806;59;2075;-24
2023/07/08 04:07:04;;;;;;;;;;;;;;;;;;2205406;67;1838;-24
2023/07/08 04:09:34;;;;;;;;;;;;;;;;;;2204811;59;2252;-24
2023/07/08 04:12:05;;;;;;;;;;;;;;;;;;2205513;59;1758;-24
2023/07/08 04:14:35;;;;;;;;;;;;;;;;;;2205259;67;1917;-24
2023/07/08 04:17:06;;;;;;;;;;;;;;;;;;2205079;67;2087;-24
2023/07/08 04:19:39;;;;;;;;;;;;;;;;;;2205601;60;2698;-24
2023/07/08 04:22:09;;;;;;;;;;;;;;;;;;2204605;67;2186;-24
2023/07/08 04:24:40;;;;;;;;;;;;;;;;;;2203722;67;2500;-24
2023/07/08 04:27:15;;;;;;;;;;;;;;;;;;2201498;59;2749;-24
2023/07/08 04:29:45;;;;;;;;;;;;;;;;;;2205665;67;1833;-24
2023/07/08 04:32:15;;;;;;;;;;;;;;;;;;2204873;59;2108;-24
2023/07/08 04:34:45;;;;;;;;;;;;;;;;;;2205861;67;2016;-24
2023/07/08 04:37:16;;;;;;;;;;;;;;;;;;2204785;67;1899;-24
2023/07/08 04:39:46;;;;;;;;;;;;;;;;;;2205346;59;2089;-24
2023/07/08 04:42:17;;;;;;;;;;;;;;;;;;2199747;59;2743;-24
2023/07/08 04:44:49;;;;;;;;;;;;;;;;;;2205267;67;1939;-24
2023/07/08 04:47:20;;;;;;;;;;;;;;;;;;2204638;59;3821;-24
2023/07/08 04:49:50;;;;;;;;;;;;;;;;;;2201890;59;1795;-24
2023/07/08 04:52:22;;;;;;;;;;;;;;;;;;2204227;67;2844;-24
2023/07/08 04:54:52;;;;;;;;;;;;;;;;;;2205441;67;1984;-24
2023/07/08 04:57:22;;;;;;;;;;;;;;;;;;2205158;59;2396;-24
2023/07/08 04:59:52;;;;;;;;;;;;;;;;;;2205226;59;2111;-24
2023/07/08 05:02:22;;;;;;;;;;;;;;;;;;2205140;59;2272;-24
2023/07/08 05:04:53;;;;;;;;;;;;;;;;;;2205600;59;1758;-24
2023/07/08 05:07:23;;;;;;;;;;;;;;;;;;2204896;67;2108;-24
2023/07/08 05:09:53;;;;;;;;;;;;;;;;;;2200602;59;2369;-24
2023/07/08 05:12:25;;;;;;;;;;;;;;;;;;2205077;59;2841;-24
2023/07/08 05:14:55;;;;;;;;;;;;;;;;;;2205551;67;2120;-24
2023/07/08 05:17:26;;;;;;;;;;;;;;;;;;2205205;67;1899;-24
2023/07/08 05:20:00;;;;;;;;;;;;;;;;;;2205582;67;1721;-24
2023/07/08 05:22:31;;;;;;;;;;;;;;;;;;2205083;59;2454;-24
2023/07/08 05:25:01;;;;;;;;;;;;;;;;;;2205718;67;1965;-24
2023/07/08 05:27:35;;;;;;;;;;;;;;;;;;2204868;59;2052;-24
2023/07/08 05:30:06;;;;;;;;;;;;;;;;;;2205531;67;2499;-24
2023/07/08 05:32:36;;;;;;;;;;;;;;;;;;2201740;59;2499;-24
2023/07/08 05:35:06;;;;;;;;;;;;;;;;;;2205018;67;1930;-24
2023/07/08 05:37:36;;;;;;;;;;;;;;;;;;2205321;67;1839;-24
2023/07/08 05:40:08;;;;;;;;;;;;;;;;;;2205461;67;1832;-24
2023/07/08 05:42:38;;;;;;;;;;;;;;;;;;2204148;59;2561;-24
2023/07/08 05:45:11;;;;;;;;;;;;;;;;;;2204030;67;2365;-24
2023/07/08 05:47:41;;;;;;;;;;;;;;;;;;2201882;59;1878;-24
2023/07/08 05:50:11;;;;;;;;;;;;;;;;;;2205076;67;1785;-24
2023/07/08 05:52:41;;;;;;;;;;;;;;;;;;2205298;59;1990;-24
2023/07/08 05:55:12;;;;;;;;;;;;;;;;;;2204692;59;2744;-24
2023/07/08 05:57:42;;;;;;;;;;;;;;;;;;2198756;59;2361;-24
2023/07/08 06:00:12;;;;;;;;;;;;;;;;;;2203653;59;2350;-24
2023/07/08 06:02:43;;;;;;;;;;;;;;;;;;2201977;67;1950;-24
2023/07/08 06:05:13;;;;;;;;;;;;;;;;;;2204723;59;2607;-24
2023/07/08 06:07:43;;;;;;;;;;;;;;;;;;2204861;59;2043;-24
2023/07/08 06:10:13;;;;;;;;;;;;;;;;;;2204677;67;1871;-24
2023/07/08 06:12:43;;;;;;;;;;;;;;;;;;2203981;59;2637;-24
2023/07/08 06:15:14;;;;;;;;;;;;;;;;;;2203747;67;1994;-24
2023/07/08 06:17:44;;;;;;;;;;;;;;;;;;2205136;67;1904;-24
2023/07/08 06:20:14;;;;;;;;;;;;;;;;;;2204303;59;1810;-24
2023/07/08 06:22:44;;;;;;;;;;;;;;;;;;2205005;59;2524;-24
2023/07/08 06:25:14;;;;;;;;;;;;;;;;;;2204472;67;2895;-24
2023/07/08 06:27:45;;;;;;;;;;;;;;;;;;2204994;59;1946;-24
2023/07/08 06:30:15;;;;;;;;;;;;;;;;;;2204719;59;1792;-24
2023/07/08 06:32:45;;;;;;;;;;;;;;;;;;2205092;66;1899;-24
2023/07/08 06:35:16;;;;;;;;;;;;;;;;;;2203756;67;2592;-24
2023/07/08 06:37:46;;;;;;;;;;;;;;;;;;2205649;59;1756;-24
2023/07/08 06:40:18;;;;;;;;;;;;;;;;;;2205244;67;1757;-24
2023/07/08 06:42:49;;;;;;;;;;;;;;;;;;2203729;64;2454;-24
2023/07/08 06:45:19;;;;;;;;;;;;;;;;;;2203143;67;2567;-24
2023/07/08 06:47:49;;;;;;;;;;;;;;;;;;2205171;59;1792;-24
2023/07/08 06:50:19;;;;;;;;;;;;;;;;;;2204244;59;1771;-24
2023/07/08 06:52:49;;;;;;;;;;;;;;;;;;2204721;59;2177;-23
2023/07/08 06:55:20;;;;;;;;;;;;;;;;;;2203801;59;2495;-24
2023/07/08 06:57:51;;;;;;;;;;;;;;;;;;2205454;59;1909;-24
2023/07/08 07:00:22;;;;;;;;;;;;;;;;;;2204422;67;1925;-24
2023/07/08 07:02:52;;;;;;;;;;;;;;;;;;2205549;59;2017;-24
2023/07/08 07:05:22;;;;;;;;;;;;;;;;;;2203793;59;1683;-24
2023/07/08 07:07:53;;;;;;;;;;;;;;;;;;2204593;67;1737;-24
2023/07/08 07:10:23;;;;;;;;;;;;;;;;;;2204536;59;2040;-24
2023/07/08 07:12:54;;;;;;;;;;;;;;;;;;2204181;59;1831;-24
2023/07/08 07:15:24;;;;;;;;;;;;;;;;;;2204853;67;2000;-24
2023/07/08 07:17:55;;;;;;;;;;;;;;;;;;2205619;59;2724;-24
2023/07/08 07:20:26;;;;;;;;;;;;;;;;;;2205671;67;2622;-24
2023/07/08 07:22:57;;;;;;;;;;;;;;;;;;2204869;67;1818;-24
2023/07/08 07:25:27;;;;;;;;;;;;;;;;;;2205257;67;1838;-24
2023/07/08 07:27:58;;;;;;;;;;;;;;;;;;2205024;59;1592;-24
2023/07/08 07:30:32;;;;;;;;;;;;;;;;;;2205042;59;2083;-24
2023/07/08 07:33:02;;;;;;;;;;;;;;;;;;2205376;67;1792;-24
2023/07/08 07:35:32;;;;;;;;;;;;;;;;;;2205211;67;2571;-24
2023/07/08 07:38:02;;;;;;;;;;;;;;;;;;2205702;59;1946;-24
2023/07/08 07:40:32;;;;;;;;;;;;;;;;;;2206147;67;1844;-24
2023/07/08 07:43:03;;;;;;;;;;;;;;;;;;2206484;67;1962;-24
2023/07/08 07:45:39;;;;;;;;;;;;;;;;;;2203348;59;3109;-24
2023/07/08 07:48:09;;;;;;;;;;;;;;;;;;2204982;59;1995;-24
2023/07/08 07:50:40;;;;;;;;;;;;;;;;;;2204920;59;1911;-24
2023/07/08 07:53:10;;;;;;;;;;;;;;;;;;2205275;59;2553;-24
2023/07/08 07:55:40;;;;;;;;;;;;;;;;;;2202132;59;2526;-24
2023/07/08 07:58:13;;;;;;;;;;;;;;;;;;2205175;59;2755;-24
2023/07/08 08:00:44;;;;;;;;;;;;;;;;;;2204990;59;2146;-24
2023/07/08 08:03:16;;;;;;;;;;;;;;;;;;2205743;59;1783;-24
2023/07/08 08:05:47;;;;;;;;;;;;;;;;;;2205082;59;2218;-24
2023/07/08 08:08:17;;;;;;;;;;;;;;;;;;2205653;59;2287;-24
2023/07/08 08:10:47;;;;;;;;;;;;;;;;;;2205758;59;2747;-24
2023/07/08 08:13:18;;;;;;;;;;;;;;;;;;2202322;59;2746;-24
2023/07/08 08:15:48;;;;;;;;;;;;;;;;;;2204849;67;2805;-24
2023/07/08 08:18:18;;;;;;;;;;;;;;;;;;2198663;59;2157;-24
2023/07/08 08:20:50;;;;;;;;;;;;;;;;;;2205272;59;2204;-24
2023/07/08 08:23:20;;;;;;;;;;;;;;;;;;2205182;67;1968;-24
2023/07/08 08:25:50;;;;;;;;;;;;;;;;;;2201214;59;2824;-24
2023/07/08 08:28:21;;;;;;;;;;;;;;;;;;2205132;67;2640;-24
2023/07/08 08:30:51;;;;;;;;;;;;;;;;;;2206031;59;2055;-24
2023/07/08 08:33:22;;;;;;;;;;;;;;;;;;2203784;59;2610;-24
2023/07/08 08:35:52;;;;;;;;;;;;;;;;;;2205797;59;2297;-24
2023/07/08 08:38:22;;;;;;;;;;;;;;;;;;2204176;59;2518;-24
2023/07/08 08:40:52;;;;;;;;;;;;;;;;;;2204890;67;1767;-24
2023/07/08 08:43:29;;;;;;;;;;;;;;;;;;2201646;59;1749;-24
2023/07/08 08:46:09;;;;;;;;;;;;;;;;;;2204669;59;3175;-24
2023/07/08 08:49:02;;;;;;;;;;;;;;;;;;2206077;59;2175;-22
2023/07/08 08:51:33;;;;;;;;;;;;;;;;;;2202269;59;1963;-22
2023/07/08 08:54:03;;;;;;;;;;;;;;;;;;2206488;59;1967;-22
2023/07/08 08:56:54;;;;;;;;;;;;;;;;;;2206691;59;2723;-22
2023/07/08 08:59:24;;;;;;;;;;;;;;;;;;2200706;67;2087;-22
2023/07/08 09:01:55;;;;;;;;;;;;;;;;;;2206289;64;3604;-22
2023/07/08 09:04:29;;;;;;;;;;;;;;;;;;2206192;59;1856;-22
2023/07/08 09:07:03;;;;;;;;;;;;;;;;;;2201973;59;2490;-22
2023/07/08 09:09:45;;;;;;;;;;;;;;;;;;2205046;59;2474;-22
2023/07/08 09:12:22;;;;;;;;;;;;;;;;;;2203812;59;2068;-22
2023/07/08 09:14:52;;;;;;;;;;;;;;;;;;2205084;59;2156;-22
2023/07/08 09:17:34;;;;;;;;;;;;;;;;;;2204310;67;2556;-23
2023/07/08 09:20:21;;;;;;;;;;;;;;;;;;2205236;67;2218;-22
2023/07/08 09:22:56;;;;;;;;;;;;;;;;;;2206147;67;2373;-22
2023/07/08 09:25:35;;;;;;;;;;;;;;;;;;2206897;67;2043;-23
2023/07/08 09:28:07;;;;;;;;;;;;;;;;;;2208513;59;1571;-23
2023/07/08 09:30:37;;;;;;;;;;;;;;;;;;2207361;59;1344;-23
2023/07/08 09:33:08;;;;;;;;;;;;;;;;;;2207061;59;1703;-23
2023/07/08 09:35:56;;;;;;;;;;;;;;;;;;2205330;67;1940;-23
2023/07/08 09:38:26;;;;;;;;;;;;;;;;;;2207139;67;2042;-23
2023/07/08 09:40:57;;;;;;;;;;;;;;;;;;2207657;67;1835;-23
2023/07/08 09:43:37;;;;;;;;;;;;;;;;;;2206960;67;1982;-23
2023/07/08 09:46:11;;;;;;;;;;;;;;;;;;2205822;59;2452;-23
2023/07/08 09:48:42;;;;;;;;;;;;;;;;;;2206203;59;3019;-23
2023/07/08 09:51:15;;;;;;;;;;;;;;;;;;2208658;59;2724;-23
2023/07/08 09:53:46;;;;;;;;;;;;;;;;;;2208786;67;2120;-23
2023/07/08 09:56:16;;;;;;;;;;;;;;;;;;2208538;59;1909;-23
2023/07/08 09:58:49;;;;;;;;;;;;;;;;;;2208451;67;1802;-23
2023/07/08 10:01:24;;;;;;;;;;;;;;;;;;2209655;59;2573;-23
2023/07/08 10:03:59;;;;;;;;;;;;;;;;;;2211001;59;2635;-23
2023/07/08 10:06:32;;;;;;;;;;;;;;;;;;2209186;67;1955;-23
2023/07/08 10:09:04;;;;;;;;;;;;;;;;;;2200801;59;1596;-23
2023/07/08 10:11:43;;;;;;;;;;;;;;;;;;2205408;59;1538;-23
2023/07/08 10:14:35;;;;;;;;;;;;;;;;;;2203660;59;1709;-23
2023/07/08 10:17:05;;;;;;;;;;;;;;;;;;2203893;67;1933;-23
2023/07/08 10:19:36;;;;;;;;;;;;;;;;;;2205257;59;1706;-23
2023/07/08 10:22:42;;;;;;;;;;;;;;;;;;2205804;67;1729;-23
2023/07/08 10:25:27;;;;;;;;;;;;;;;;;;2196625;67;1840;-23
2023/07/08 10:28:12;;;;;;;;;;;;;;;;;;2204205;59;1903;-23
2023/07/08 10:31:07;;;;;;;;;;;;;;;;;;2205860;59;1711;-23
2023/07/08 10:33:40;;;;;;;;;;;;;;;;;;2204418;59;2288;-23
2023/07/08 10:36:36;;;;;;;;;;;;;;;;;;2199041;59;2250;-23
2023/07/08 10:39:09;;;;;;;;;;;;;;;;;;2203279;59;2123;-23
2023/07/08 10:42:01;;;;;;;;;;;;;;;;;;2204473;67;1670;-23
2023/07/08 10:44:31;;;;;;;;;;;;;;;;;;2203944;67;1684;-23
2023/07/08 10:47:10;;;;;;;;;;;;;;;;;;2204335;59;1658;-23
2023/07/08 10:49:51;;;;;;;;;;;;;;;;;;2204417;59;1406;-23
2023/07/08 10:52:31;;;;;;;;;;;;;;;;;;2205743;59;1258;-23
2023/07/08 10:55:08;;;;;;;;;;;;;;;;;;2203807;67;1941;-23
2023/07/08 10:57:53;;;;;;;;;;;;;;;;;;2205963;67;2129;-23
2023/07/08 11:00:28;;;;;;;;;;;;;;;;;;2205802;67;1458;-23
2023/07/08 11:03:19;;;;;;;;;;;;;;;;;;2202861;59;1686;-23
2023/07/08 11:05:52;;;;;;;;;;;;;;;;;;2198907;59;2274;-23
2023/07/08 11:08:26;;;;;;;;;;;;;;;;;;2205198;59;1345;-23
2023/07/08 11:11:00;;;;;;;;;;;;;;;;;;2205766;67;1876;-23
2023/07/08 11:13:37;;;;;;;;;;;;;;;;;;2205772;67;1986;-23
2023/07/08 11:16:14;;;;;;;;;;;;;;;;;;2205762;67;1924;-23
2023/07/08 11:18:51;;;;;;;;;;;;;;;;;;2206026;67;1672;-23
2023/07/08 11:21:39;;;;;;;;;;;;;;;;;;2206050;67;2064;-23
2023/07/08 11:24:22;;;;;;;;;;;;;;;;;;2205623;67;1699;-23
2023/07/08 11:26:55;;;;;;;;;;;;;;;;;;2203236;59;1284;-23
2023/07/08 11:29:31;;;;;;;;;;;;;;;;;;2205972;67;1274;-23
2023/07/08 11:32:03;;;;;;;;;;;;;;;;;;2205778;59;1684;-23
2023/07/08 11:34:34;;;;;;;;;;;;;;;;;;2206304;67;1270;-23
2023/07/08 11:37:05;;;;;;;;;;;;;;;;;;2205603;67;1932;-23
2023/07/08 11:39:41;;;;;;;;;;;;;;;;;;2205966;67;1442;-23
2023/07/08 11:42:31;;;;;;;;;;;;;;;;;;2204909;67;1364;-23
2023/07/08 11:45:06;;;;;;;;;;;;;;;;;;2206208;67;1308;-23
2023/07/08 11:47:59;;;;;;;;;;;;;;;;;;2205194;59;1823;-23
2023/07/08 11:50:32;;;;;;;;;;;;;;;;;;2202383;59;1383;-23
2023/07/08 11:53:06;;;;;;;;;;;;;;;;;;2205555;59;1314;-23
2023/07/08 11:55:56;;;;;;;;;;;;;;;;;;2201822;59;1997;-23
2023/07/08 11:58:50;;;;;;;;;;;;;;;;;;2201715;59;2082;-23
2023/07/08 12:01:45;;;;;;;;;;;;;;;;;;2205407;67;2093;-23
2023/07/08 12:04:21;;;;;;;;;;;;;;;;;;2205078;59;1644;-23
2023/07/08 12:07:10;;;;;;;;;;;;;;;;;;2205388;67;1393;-23
2023/07/08 12:09:48;;;;;;;;;;;;;;;;;;2206125;59;1507;-23
2023/07/08 12:12:24;;;;;;;;;;;;;;;;;;2205866;59;1616;-23
2023/07/08 12:15:00;;;;;;;;;;;;;;;;;;2201451;67;1222;-23
2023/07/08 12:17:33;;;;;;;;;;;;;;;;;;2205751;67;1956;-23
2023/07/08 12:20:07;;;;;;;;;;;;;;;;;;2205243;67;1234;-23
2023/07/08 12:22:38;;;;;;;;;;;;;;;;;;2206611;67;1326;-23
2023/07/08 12:25:13;;;;;;;;;;;;;;;;;;2206757;67;1422;-23
2023/07/08 12:27:45;;;;;;;;;;;;;;;;;;2206823;59;1734;-23
2023/07/08 12:30:16;;;;;;;;;;;;;;;;;;2207381;59;1368;-23
2023/07/08 12:32:46;;;;;;;;;;;;;;;;;;2207408;67;2079;-23
2023/07/08 12:35:22;;;;;;;;;;;;;;;;;;2205745;59;2079;-23
2023/07/08 12:37:54;;;;;;;;;;;;;;;;;;2206764;59;2836;-23
2023/07/08 12:40:25;;;;;;;;;;;;;;;;;;2206693;59;2105;-23
2023/07/08 12:42:56;;;;;;;;;;;;;;;;;;2204773;67;1910;-23
2023/07/08 12:45:29;;;;;;;;;;;;;;;;;;2206987;59;1416;-23
2023/07/08 12:47:59;;;;;;;;;;;;;;;;;;2205112;67;2018;-23
2023/07/08 12:50:30;;;;;;;;;;;;;;;;;;2205393;59;1832;-23
2023/07/08 12:53:04;;;;;;;;;;;;;;;;;;2205099;59;2128;-23
2023/07/08 12:55:35;;;;;;;;;;;;;;;;;;2205348;59;1958;-23
2023/07/08 12:58:05;;;;;;;;;;;;;;;;;;2204628;67;1943;-23
2023/07/08 13:00:38;;;;;;;;;;;;;;;;;;2205325;67;2150;-23
2023/07/08 13:03:17;;;;;;;;;;;;;;;;;;2204781;59;2103;-23
2023/07/08 13:05:49;;;;;;;;;;;;;;;;;;2205218;59;2111;-23
2023/07/08 13:08:20;;;;;;;;;;;;;;;;;;2205290;67;2138;-23
2023/07/08 13:10:52;;;;;;;;;;;;;;;;;;2205550;59;2037;-23
2023/07/08 13:13:28;;;;;;;;;;;;;;;;;;2205423;59;2034;-23
2023/07/08 13:15:58;;;;;;;;;;;;;;;;;;2205352;67;2307;-23
2023/07/08 13:18:36;;;;;;;;;;;;;;;;;;2205843;67;2076;-23
2023/07/08 13:21:08;;;;;;;;;;;;;;;;;;2204997;67;2101;-23
2023/07/08 13:23:39;;;;;;;;;;;;;;;;;;2206166;59;2584;-23
2023/07/08 13:26:17;;;;;;;;;;;;;;;;;;2204242;59;1774;-23
2023/07/08 13:28:49;;;;;;;;;;;;;;;;;;2204682;59;1868;-23
2023/07/08 13:31:21;;;;;;;;;;;;;;;;;;2204436;59;2069;-23
2023/07/08 13:33:52;;;;;;;;;;;;;;;;;;2205094;59;1947;-23
2023/07/08 13:36:32;;;;;;;;;;;;;;;;;;2200725;59;2155;-23
2023/07/08 13:39:08;;;;;;;;;;;;;;;;;;2204604;67;2086;-23
2023/07/08 13:41:42;;;;;;;;;;;;;;;;;;2205697;59;1264;-23
2023/07/08 13:44:12;;;;;;;;;;;;;;;;;;2201126;67;1684;-23
2023/07/08 13:46:45;;;;;;;;;;;;;;;;;;2205527;59;1190;-23
2023/07/08 13:49:27;;;;;;;;;;;;;;;;;;2204950;59;1300;-23
2023/07/08 13:52:19;;;;;;;;;;;;;;;;;;2205799;59;1275;-23
2023/07/08 13:54:52;;;;;;;;;;;;;;;;;;2205275;67;2037;-23
2023/07/08 13:57:27;;;;;;;;;;;;;;;;;;2204596;59;1952;-23
2023/07/08 13:59:57;;;;;;;;;;;;;;;;;;2204877;67;1183;-23
2023/07/08 14:02:29;;;;;;;;;;;;;;;;;;2205704;67;1099;-23
2023/07/08 14:05:01;;;;;;;;;;;;;;;;;;2205446;59;1650;-23
2023/07/08 14:07:32;;;;;;;;;;;;;;;;;;2203612;59;1258;-23
2023/07/08 14:10:07;;;;;;;;;;;;;;;;;;2205437;53;2007;-21
2023/07/08 14:12:38;;;;;;;;;;;;;;;;;;2196250;59;1858;-21
2023/07/08 14:15:08;;;;;;;;;;;;;;;;;;2198227;67;1443;-21
2023/07/08 14:17:39;;;;;;;;;;;;;;;;;;2198679;59;1983;-21
2023/07/08 14:20:11;;;;;;;;;;;;;;;;;;2193928;67;1775;-21
2023/07/08 14:22:41;;;;;;;;;;;;;;;;;;2195529;59;1832;-21
2023/07/08 14:25:13;;;;;;;;;;;;;;;;;;2201401;67;1271;-21
2023/07/08 14:27:43;;;;;;;;;;;;;;;;;;2202503;59;1800;-22
2023/07/08 14:30:15;;;;;;;;;;;;;;;;;;2199823;59;2598;-21
2023/07/08 14:32:45;;;;;;;;;;;;;;;;;;2195687;59;2670;-21
2023/07/08 14:35:22;;;;;;;;;;;;;;;;;;2198292;59;3223;-21
2023/07/08 14:37:55;;;;;;;;;;;;;;;;;;2196588;67;3035;-21
2023/07/08 14:40:26;;;;;;;;;;;;;;;;;;2201395;59;2555;-21
2023/07/08 14:43:04;;;;;;;;;;;;;;;;;;2194539;67;1652;-21
2023/07/08 14:45:48;;;;;;;;;;;;;;;;;;2199605;59;2003;-21
2023/07/08 14:48:18;;;;;;;;;;;;;;;;;;2201101;67;1804;-21
2023/07/08 14:50:48;;;;;;;;;;;;;;;;;;2202166;59;1491;-22
2023/07/08 14:53:18;;;;;;;;;;;;;;;;;;2201490;67;1986;-22
2023/07/08 14:55:53;;;;;;;;;;;;;;;;;;2202270;59;2044;-22
2023/07/08 14:58:26;;;;;;;;;;;;;;;;;;2201688;59;2107;-22
2023/07/08 15:00:57;;;;;;;;;;;;;;;;;;2201490;59;2200;-22
2023/07/08 15:03:28;;;;;;;;;;;;;;;;;;2201967;59;1572;-22
2023/07/08 15:05:58;;;;;;;;;;;;;;;;;;2198092;67;2047;-22
2023/07/08 15:08:28;;;;;;;;;;;;;;;;;;2202195;67;1141;-22
2023/07/08 15:11:00;;;;;;;;;;;;;;;;;;2198885;59;2052;-22
2023/07/08 15:13:31;;;;;;;;;;;;;;;;;;2201610;59;2479;-22
2023/07/08 15:16:01;;;;;;;;;;;;;;;;;;2196158;67;1948;-21
2023/07/08 15:18:33;;;;;;;;;;;;;;;;;;2201838;67;1262;-21
2023/07/08 15:21:04;;;;;;;;;;;;;;;;;;2201699;67;1731;-21
2023/07/08 15:23:34;;;;;;;;;;;;;;;;;;2202015;67;1283;-21
2023/07/08 15:26:05;;;;;;;;;;;;;;;;;;2202044;59;1233;-21
2023/07/08 15:28:35;;;;;;;;;;;;;;;;;;2198107;59;2225;-21
2023/07/08 15:31:08;;;;;;;;;;;;;;;;;;2201567;59;1362;-21
2023/07/08 15:33:38;;;;;;;;;;;;;;;;;;2202244;67;1660;-21
2023/07/08 15:36:09;;;;;;;;;;;;;;;;;;2198005;59;2698;-22
2023/07/08 15:38:40;;;;;;;;;;;;;;;;;;2201805;67;2625;-21
2023/07/08 15:41:21;;;;;;;;;;;;;;;;;;2201326;67;1790;-21
2023/07/08 15:43:55;;;;;;;;;;;;;;;;;;2203072;59;1817;-22
2023/07/08 15:46:30;;;;;;;;;;;;;;;;;;2202585;59;1722;-22
2023/07/08 15:49:01;;;;;;;;;;;;;;;;;;2202035;59;2465;-22
2023/07/08 15:51:31;;;;;;;;;;;;;;;;;;2202412;59;2946;-22
2023/07/08 15:54:02;;;;;;;;;;;;;;;;;;2201904;67;2707;-22
2023/07/08 15:56:35;;;;;;;;;;;;;;;;;;2202768;59;1914;-22
2023/07/08 15:59:09;;;;;;;;;;;;;;;;;;2202601;67;1868;-22
2023/07/08 16:01:39;;;;;;;;;;;;;;;;;;2202340;67;1273;-22
2023/07/08 16:04:28;;;;;;;;;;;;;;;;;;2202235;59;2134;-22
2023/07/08 16:06:58;;;;;;;;;;;;;;;;;;2201709;59;1825;-22
2023/07/08 16:09:29;;;;;;;;;;;;;;;;;;2201498;59;2848;-22
2023/07/08 16:11:59;;;;;;;;;;;;;;;;;;2201923;59;1765;-22
2023/07/08 16:14:29;;;;;;;;;;;;;;;;;;2195173;67;1682;-22
2023/07/08 16:16:59;;;;;;;;;;;;;;;;;;2201618;67;1930;-22
2023/07/08 16:19:30;;;;;;;;;;;;;;;;;;2196696;59;2169;-22
2023/07/08 16:22:00;;;;;;;;;;;;;;;;;;2198439;59;2486;-22
2023/07/08 16:24:30;;;;;;;;;;;;;;;;;;2196528;67;2104;-22
2023/07/08 16:27:01;;;;;;;;;;;;;;;;;;2200443;59;1997;-22
2023/07/08 16:29:32;;;;;;;;;;;;;;;;;;2197530;67;1258;-22
2023/07/08 16:32:02;;;;;;;;;;;;;;;;;;2200623;59;1666;-22
2023/07/08 16:34:32;;;;;;;;;;;;;;;;;;2201638;67;1652;-22
2023/07/08 16:37:03;;;;;;;;;;;;;;;;;;2200535;60;2400;-22
2023/07/08 16:39:33;;;;;;;;;;;;;;;;;;2201533;67;2363;-22
2023/07/08 16:42:04;;;;;;;;;;;;;;;;;;2201621;67;2315;-22
2023/07/08 16:44:34;;;;;;;;;;;;;;;;;;2201614;67;1538;-22
2023/07/08 16:47:04;;;;;;;;;;;;;;;;;;2201703;67;1830;-22
2023/07/08 16:49:34;;;;;;;;;;;;;;;;;;2202318;67;1245;-22
2023/07/08 16:52:08;;;;;;;;;;;;;;;;;;2202242;59;1691;-22
2023/07/08 16:54:38;;;;;;;;;;;;;;;;;;2202706;67;1264;-22
2023/07/08 16:57:12;;;;;;;;;;;;;;;;;;2201969;59;1932;-22
2023/07/08 16:59:42;;;;;;;;;;;;;;;;;;2199093;67;1243;-22
2023/07/08 17:02:16;;;;;;;;;;;;;;;;;;2202349;67;1809;-22
2023/07/08 17:04:48;;;;;;;;;;;;;;;;;;2204961;59;1425;-22
2023/07/08 17:07:18;;;;;;;;;;;;;;;;;;2200637;67;1280;-22
2023/07/08 17:09:49;;;;;;;;;;;;;;;;;;2205332;59;2013;-22
2023/07/08 17:12:19;;;;;;;;;;;;;;;;;;2205145;59;1581;-22
2023/07/08 17:14:49;;;;;;;;;;;;;;;;;;2205147;67;1121;-22
2023/07/08 17:17:19;;;;;;;;;;;;;;;;;;2199340;67;1956;-22
2023/07/08 17:19:50;;;;;;;;;;;;;;;;;;2198646;67;1326;-22
2023/07/08 17:22:21;;;;;;;;;;;;;;;;;;2201988;67;1525;-22
2023/07/08 17:24:51;;;;;;;;;;;;;;;;;;2202790;67;1351;-22
2023/07/08 17:27:21;;;;;;;;;;;;;;;;;;2197669;59;1339;-23
2023/07/08 17:29:51;;;;;;;;;;;;;;;;;;2203100;67;1298;-22
2023/07/08 17:32:22;;;;;;;;;;;;;;;;;;2201751;67;1662;-22
2023/07/08 17:34:52;;;;;;;;;;;;;;;;;;2202239;67;1678;-22
2023/07/08 17:37:22;;;;;;;;;;;;;;;;;;2201897;67;1946;-22
2023/07/08 17:39:52;;;;;;;;;;;;;;;;;;2200930;67;2432;-22
2023/07/08 17:42:22;;;;;;;;;;;;;;;;;;2201818;67;1862;-22